sensor_id;sensor_type;location;lat;lon;timestamp;temperature;humidity
9847;DHT22;68671;50.084;8.794;2023-05-07T00:00:05;19.90;99.90
9847;DHT22;68671;50.084;8.794;2023-05-07T00:02:33;19.90;99.90
9847;DHT22;68671;50.084;8.794;2023-05-07T00:05:00;20.00;99.90
9847;DHT22;68671;50.084;8.794;2023-05-07T00:07:27;20.00;99.90
9847;DHT22;68671;50.084;8.794;2023-05-07T00:09:54;19.90;99.90
9847;DHT22;68671;50.084;8.794;2023-05-07T00:12:21;19.90;99.90
9847;DHT22;68671;50.084;8.794;2023-05-07T00:14:49;19.90;99.90
9847;DHT22;68671;50.084;8.794;2023-05-07T00:17:16;19.90;99.90
9847;DHT22;68671;50.084;8.794;2023-05-07T00:19:44;19.90;99.90
9847;DHT22;68671;50.084;8.794;2023-05-07T00:22:10;19.90;99.90
9847;DHT22;68671;50.084;8.794;2023-05-07T00:24:37;19.90;99.90
9847;DHT22;68671;50.084;8.794;2023-05-07T00:27:04;19.80;99.90
9847;DHT22;68671;50.084;8.794;2023-05-07T00:29:31;19.80;99.90
9847;DHT22;68671;50.084;8.794;2023-05-07T00:32:00;19.70;99.90
9847;DHT22;68671;50.084;8.794;2023-05-07T00:34:27;19.70;99.90
9847;DHT22;68671;50.084;8.794;2023-05-07T00:36:53;19.60;99.90
9847;DHT22;68671;50.084;8.794;2023-05-07T00:39:20;19.60;99.90
9847;DHT22;68671;50.084;8.794;2023-05-07T00:41:47;19.60;99.90
9847;DHT22;68671;50.084;8.794;2023-05-07T00:44:14;19.50;99.90
9847;DHT22;68671;50.084;8.794;2023-05-07T00:46:41;19.50;99.90
9847;DHT22;68671;50.084;8.794;2023-05-07T00:49:10;19.40;99.90
9847;DHT22;68671;50.084;8.794;2023-05-07T00:51:37;19.40;99.90
9847;DHT22;68671;50.084;8.794;2023-05-07T00:54:04;19.30;99.90
9847;DHT22;68671;50.084;8.794;2023-05-07T00:56:31;19.30;99.90
9847;DHT22;68671;50.084;8.794;2023-05-07T00:59:01;19.30;99.90
9847;DHT22;68671;50.084;8.794;2023-05-07T01:01:28;19.20;99.90
9847;DHT22;68671;50.084;8.794;2023-05-07T01:03:55;19.10;99.90
9847;DHT22;68671;50.084;8.794;2023-05-07T01:06:25;19.00;99.90
9847;DHT22;68671;50.084;8.794;2023-05-07T01:08:53;19.00;99.90
9847;DHT22;68671;50.084;8.794;2023-05-07T01:11:22;19.00;99.90
9847;DHT22;68671;50.084;8.794;2023-05-07T01:13:50;19.00;99.90
9847;DHT22;68671;50.084;8.794;2023-05-07T01:16:17;18.90;99.90
9847;DHT22;68671;50.084;8.794;2023-05-07T01:18:44;18.90;99.90
9847;DHT22;68671;50.084;8.794;2023-05-07T01:21:15;18.80;99.90
9847;DHT22;68671;50.084;8.794;2023-05-07T01:23:46;18.80;99.90
9847;DHT22;68671;50.084;8.794;2023-05-07T01:26:13;18.70;99.90
9847;DHT22;68671;50.084;8.794;2023-05-07T01:28:40;18.60;99.90
9847;DHT22;68671;50.084;8.794;2023-05-07T01:31:08;18.60;99.90
9847;DHT22;68671;50.084;8.794;2023-05-07T01:33:37;18.60;99.90
9847;DHT22;68671;50.084;8.794;2023-05-07T01:36:05;18.60;99.90
9847;DHT22;68671;50.084;8.794;2023-05-07T01:38:34;18.60;99.90
9847;DHT22;68671;50.084;8.794;2023-05-07T01:41:03;18.60;99.90
9847;DHT22;68671;50.084;8.794;2023-05-07T01:43:31;18.60;99.90
9847;DHT22;68671;50.084;8.794;2023-05-07T01:45:58;18.60;99.90
9847;DHT22;68671;50.084;8.794;2023-05-07T01:48:26;18.60;99.90
9847;DHT22;68671;50.084;8.794;2023-05-07T01:50:53;18.60;99.90
9847;DHT22;68671;50.084;8.794;2023-05-07T01:53:21;18.70;99.90
9847;DHT22;68671;50.084;8.794;2023-05-07T01:55:48;18.60;99.90
9847;DHT22;68671;50.084;8.794;2023-05-07T01:58:16;18.60;99.90
9847;DHT22;68671;50.084;8.794;2023-05-07T02:00:43;18.60;99.90
9847;DHT22;68671;50.084;8.794;2023-05-07T02:03:10;18.60;99.90
9847;DHT22;68671;50.084;8.794;2023-05-07T02:05:37;18.60;99.90
9847;DHT22;68671;50.084;8.794;2023-05-07T02:08:04;18.40;99.90
9847;DHT22;68671;50.084;8.794;2023-05-07T02:10:31;18.40;99.90
9847;DHT22;68671;50.084;8.794;2023-05-07T02:12:58;18.40;99.90
9847;DHT22;68671;50.084;8.794;2023-05-07T02:15:26;18.40;99.90
9847;DHT22;68671;50.084;8.794;2023-05-07T02:18:00;18.30;99.90
9847;DHT22;68671;50.084;8.794;2023-05-07T02:20:28;18.40;99.90
9847;DHT22;68671;50.084;8.794;2023-05-07T02:22:55;18.50;99.90
9847;DHT22;68671;50.084;8.794;2023-05-07T02:25:22;18.50;99.90
9847;DHT22;68671;50.084;8.794;2023-05-07T02:27:49;18.60;99.90
9847;DHT22;68671;50.084;8.794;2023-05-07T02:30:16;18.60;99.90
9847;DHT22;68671;50.084;8.794;2023-05-07T02:32:44;18.50;99.90
9847;DHT22;68671;50.084;8.794;2023-05-07T02:35:11;18.60;99.90
9847;DHT22;68671;50.084;8.794;2023-05-07T02:37:38;18.60;99.90
9847;DHT22;68671;50.084;8.794;2023-05-07T02:40:06;18.60;99.90
9847;DHT22;68671;50.084;8.794;2023-05-07T02:42:34;18.60;99.90
9847;DHT22;68671;50.084;8.794;2023-05-07T02:45:01;18.60;99.90
9847;DHT22;68671;50.084;8.794;2023-05-07T02:47:28;18.60;99.90
9847;DHT22;68671;50.084;8.794;2023-05-07T02:49:56;18.60;99.90
9847;DHT22;68671;50.084;8.794;2023-05-07T02:52:23;18.60;99.90
9847;DHT22;68671;50.084;8.794;2023-05-07T02:54:50;18.60;99.90
9847;DHT22;68671;50.084;8.794;2023-05-07T02:57:17;18.60;99.90
9847;DHT22;68671;50.084;8.794;2023-05-07T02:59:44;18.60;99.90
9847;DHT22;68671;50.084;8.794;2023-05-07T03:02:11;18.60;99.90
9847;DHT22;68671;50.084;8.794;2023-05-07T03:04:39;18.50;99.90
9847;DHT22;68671;50.084;8.794;2023-05-07T03:07:08;18.50;99.90
9847;DHT22;68671;50.084;8.794;2023-05-07T03:09:34;18.40;99.90
9847;DHT22;68671;50.084;8.794;2023-05-07T03:12:01;18.40;99.90
9847;DHT22;68671;50.084;8.794;2023-05-07T03:14:28;18.30;99.90
9847;DHT22;68671;50.084;8.794;2023-05-07T03:16:55;18.20;99.90
9847;DHT22;68671;50.084;8.794;2023-05-07T03:19:22;18.20;99.90
9847;DHT22;68671;50.084;8.794;2023-05-07T03:21:49;18.20;99.90
9847;DHT22;68671;50.084;8.794;2023-05-07T03:24:18;18.20;99.90
9847;DHT22;68671;50.084;8.794;2023-05-07T03:26:45;18.20;99.90
9847;DHT22;68671;50.084;8.794;2023-05-07T03:29:12;18.30;99.90
9847;DHT22;68671;50.084;8.794;2023-05-07T03:31:39;18.30;99.90
9847;DHT22;68671;50.084;8.794;2023-05-07T03:34:06;18.30;99.90
9847;DHT22;68671;50.084;8.794;2023-05-07T03:36:33;18.40;99.90
9847;DHT22;68671;50.084;8.794;2023-05-07T03:39:00;18.40;99.90
9847;DHT22;68671;50.084;8.794;2023-05-07T03:41:28;18.40;99.90
9847;DHT22;68671;50.084;8.794;2023-05-07T03:43:55;18.40;99.90
9847;DHT22;68671;50.084;8.794;2023-05-07T03:46:22;18.40;99.90
9847;DHT22;68671;50.084;8.794;2023-05-07T03:48:51;18.50;99.90
9847;DHT22;68671;50.084;8.794;2023-05-07T03:51:18;18.40;99.90
9847;DHT22;68671;50.084;8.794;2023-05-07T03:53:45;18.40;99.90
9847;DHT22;68671;50.084;8.794;2023-05-07T03:56:12;18.40;99.90
9847;DHT22;68671;50.084;8.794;2023-05-07T03:58:40;18.40;99.90
9847;DHT22;68671;50.084;8.794;2023-05-07T04:01:07;18.40;99.90
9847;DHT22;68671;50.084;8.794;2023-05-07T04:03:34;18.30;99.90
9847;DHT22;68671;50.084;8.794;2023-05-07T04:06:01;18.30;99.90
9847;DHT22;68671;50.084;8.794;2023-05-07T04:08:28;18.20;99.90
9847;DHT22;68671;50.084;8.794;2023-05-07T04:10:55;18.10;99.90
9847;DHT22;68671;50.084;8.794;2023-05-07T04:13:22;18.10;99.90
9847;DHT22;68671;50.084;8.794;2023-05-07T04:15:54;18.00;99.90
9847;DHT22;68671;50.084;8.794;2023-05-07T04:18:21;18.00;99.90
9847;DHT22;68671;50.084;8.794;2023-05-07T04:20:48;17.90;99.90
9847;DHT22;68671;50.084;8.794;2023-05-07T04:23:15;18.10;99.90
9847;DHT22;68671;50.084;8.794;2023-05-07T04:25:43;18.00;99.90
9847;DHT22;68671;50.084;8.794;2023-05-07T04:28:10;17.90;99.90
9847;DHT22;68671;50.084;8.794;2023-05-07T04:30:37;17.90;99.90
9847;DHT22;68671;50.084;8.794;2023-05-07T04:33:06;17.90;99.90
9847;DHT22;68671;50.084;8.794;2023-05-07T04:35:33;17.90;99.90
9847;DHT22;68671;50.084;8.794;2023-05-07T04:38:01;17.90;99.90
9847;DHT22;68671;50.084;8.794;2023-05-07T04:40:29;18.00;99.90
9847;DHT22;68671;50.084;8.794;2023-05-07T04:42:56;17.90;99.90
9847;DHT22;68671;50.084;8.794;2023-05-07T04:45:24;17.90;99.90
9847;DHT22;68671;50.084;8.794;2023-05-07T04:47:51;17.80;99.90
9847;DHT22;68671;50.084;8.794;2023-05-07T04:50:19;17.80;99.90
9847;DHT22;68671;50.084;8.794;2023-05-07T04:52:49;17.80;99.90
9847;DHT22;68671;50.084;8.794;2023-05-07T04:55:16;17.80;99.90
9847;DHT22;68671;50.084;8.794;2023-05-07T04:57:43;17.80;99.90
9847;DHT22;68671;50.084;8.794;2023-05-07T05:00:11;17.80;99.90
9847;DHT22;68671;50.084;8.794;2023-05-07T05:02:39;17.90;99.90
9847;DHT22;68671;50.084;8.794;2023-05-07T05:05:07;17.80;99.90
9847;DHT22;68671;50.084;8.794;2023-05-07T05:07:36;17.90;99.90
9847;DHT22;68671;50.084;8.794;2023-05-07T05:10:05;17.90;99.90
9847;DHT22;68671;50.084;8.794;2023-05-07T05:12:33;18.00;99.90
9847;DHT22;68671;50.084;8.794;2023-05-07T05:15:03;18.00;99.90
9847;DHT22;68671;50.084;8.794;2023-05-07T05:17:30;18.00;99.90
9847;DHT22;68671;50.084;8.794;2023-05-07T05:19:59;18.00;99.90
9847;DHT22;68671;50.084;8.794;2023-05-07T05:22:26;18.00;99.90
9847;DHT22;68671;50.084;8.794;2023-05-07T05:24:59;18.10;99.90
9847;DHT22;68671;50.084;8.794;2023-05-07T05:27:26;18.20;99.90
9847;DHT22;68671;50.084;8.794;2023-05-07T05:29:53;18.30;99.90
9847;DHT22;68671;50.084;8.794;2023-05-07T05:32:20;18.40;99.90
9847;DHT22;68671;50.084;8.794;2023-05-07T05:34:47;18.50;99.90
9847;DHT22;68671;50.084;8.794;2023-05-07T05:37:14;18.60;99.90
9847;DHT22;68671;50.084;8.794;2023-05-07T05:39:42;18.80;99.90
9847;DHT22;68671;50.084;8.794;2023-05-07T05:42:11;18.90;99.90
9847;DHT22;68671;50.084;8.794;2023-05-07T05:44:37;19.00;99.90
9847;DHT22;68671;50.084;8.794;2023-05-07T05:47:05;19.20;99.90
9847;DHT22;68671;50.084;8.794;2023-05-07T05:49:32;19.30;99.90
9847;DHT22;68671;50.084;8.794;2023-05-07T05:51:59;19.40;99.90
9847;DHT22;68671;50.084;8.794;2023-05-07T05:54:26;19.40;99.90
9847;DHT22;68671;50.084;8.794;2023-05-07T05:56:53;19.50;99.90
9847;DHT22;68671;50.084;8.794;2023-05-07T05:59:21;19.50;99.90
9847;DHT22;68671;50.084;8.794;2023-05-07T06:01:48;19.60;99.90
9847;DHT22;68671;50.084;8.794;2023-05-07T06:04:15;19.60;99.90
9847;DHT22;68671;50.084;8.794;2023-05-07T06:06:42;19.90;99.90
9847;DHT22;68671;50.084;8.794;2023-05-07T06:09:09;20.10;99.90
9847;DHT22;68671;50.084;8.794;2023-05-07T06:11:36;20.20;99.90
9847;DHT22;68671;50.084;8.794;2023-05-07T06:14:03;20.30;99.90
9847;DHT22;68671;50.084;8.794;2023-05-07T06:16:32;20.40;99.90
9847;DHT22;68671;50.084;8.794;2023-05-07T06:18:59;20.40;99.90
9847;DHT22;68671;50.084;8.794;2023-05-07T06:21:26;20.40;99.90
9847;DHT22;68671;50.084;8.794;2023-05-07T06:23:53;20.40;99.90
9847;DHT22;68671;50.084;8.794;2023-05-07T06:26:20;20.50;99.90
9847;DHT22;68671;50.084;8.794;2023-05-07T06:28:47;20.50;99.90
9847;DHT22;68671;50.084;8.794;2023-05-07T06:31:15;20.70;99.90
9847;DHT22;68671;50.084;8.794;2023-05-07T06:33:44;20.70;99.90
9847;DHT22;68671;50.084;8.794;2023-05-07T06:36:11;20.80;99.90
9847;DHT22;68671;50.084;8.794;2023-05-07T06:38:38;20.90;99.90
9847;DHT22;68671;50.084;8.794;2023-05-07T06:41:06;21.00;99.90
9847;DHT22;68671;50.084;8.794;2023-05-07T06:43:33;21.10;99.90
9847;DHT22;68671;50.084;8.794;2023-05-07T06:46:00;21.10;99.90
9847;DHT22;68671;50.084;8.794;2023-05-07T06:48:27;21.10;99.90
9847;DHT22;68671;50.084;8.794;2023-05-07T06:50:55;21.10;99.90
9847;DHT22;68671;50.084;8.794;2023-05-07T06:53:23;21.00;99.90
9847;DHT22;68671;50.084;8.794;2023-05-07T06:55:50;21.00;99.90
9847;DHT22;68671;50.084;8.794;2023-05-07T06:58:17;21.10;99.90
9847;DHT22;68671;50.084;8.794;2023-05-07T07:00:44;21.00;99.90
9847;DHT22;68671;50.084;8.794;2023-05-07T07:03:11;21.00;99.90
9847;DHT22;68671;50.084;8.794;2023-05-07T07:05:38;20.90;99.90
9847;DHT22;68671;50.084;8.794;2023-05-07T07:08:06;20.90;99.90
9847;DHT22;68671;50.084;8.794;2023-05-07T07:10:33;20.90;99.90
9847;DHT22;68671;50.084;8.794;2023-05-07T07:13:00;20.90;99.90
9847;DHT22;68671;50.084;8.794;2023-05-07T07:15:27;20.90;99.90
9847;DHT22;68671;50.084;8.794;2023-05-07T07:17:54;20.90;99.90
9847;DHT22;68671;50.084;8.794;2023-05-07T07:20:21;20.90;99.90
9847;DHT22;68671;50.084;8.794;2023-05-07T07:22:48;20.80;99.90
9847;DHT22;68671;50.084;8.794;2023-05-07T07:25:16;20.90;99.90
9847;DHT22;68671;50.084;8.794;2023-05-07T07:27:43;20.90;99.90
9847;DHT22;68671;50.084;8.794;2023-05-07T07:30:11;21.00;99.90
9847;DHT22;68671;50.084;8.794;2023-05-07T07:32:37;21.00;99.90
9847;DHT22;68671;50.084;8.794;2023-05-07T07:35:06;21.10;99.90
9847;DHT22;68671;50.084;8.794;2023-05-07T07:37:33;21.10;99.90
9847;DHT22;68671;50.084;8.794;2023-05-07T07:40:04;21.10;99.90
9847;DHT22;68671;50.084;8.794;2023-05-07T07:42:32;21.10;99.90
9847;DHT22;68671;50.084;8.794;2023-05-07T07:44:59;21.10;99.90
9847;DHT22;68671;50.084;8.794;2023-05-07T07:47:26;21.20;99.90
9847;DHT22;68671;50.084;8.794;2023-05-07T07:49:53;21.30;99.90
9847;DHT22;68671;50.084;8.794;2023-05-07T07:52:20;21.30;99.90
9847;DHT22;68671;50.084;8.794;2023-05-07T07:54:47;21.30;99.90
9847;DHT22;68671;50.084;8.794;2023-05-07T07:57:13;21.30;99.90
9847;DHT22;68671;50.084;8.794;2023-05-07T07:59:42;21.40;99.90
9847;DHT22;68671;50.084;8.794;2023-05-07T08:02:09;21.40;99.90
9847;DHT22;68671;50.084;8.794;2023-05-07T08:04:39;21.50;99.90
9847;DHT22;68671;50.084;8.794;2023-05-07T08:07:07;21.60;99.90
9847;DHT22;68671;50.084;8.794;2023-05-07T08:09:34;21.60;99.90
9847;DHT22;68671;50.084;8.794;2023-05-07T08:12:03;21.70;99.90
9847;DHT22;68671;50.084;8.794;2023-05-07T08:14:31;21.70;99.90
9847;DHT22;68671;50.084;8.794;2023-05-07T08:16:59;21.80;99.90
9847;DHT22;68671;50.084;8.794;2023-05-07T08:19:26;21.90;99.90
9847;DHT22;68671;50.084;8.794;2023-05-07T08:21:55;22.00;99.90
9847;DHT22;68671;50.084;8.794;2023-05-07T08:24:43;22.00;99.90
9847;DHT22;68671;50.084;8.794;2023-05-07T08:27:10;22.10;99.90
9847;DHT22;68671;50.084;8.794;2023-05-07T08:29:39;22.20;99.90
9847;DHT22;68671;50.084;8.794;2023-05-07T08:32:09;22.30;99.90
9847;DHT22;68671;50.084;8.794;2023-05-07T08:34:37;22.50;99.90
9847;DHT22;68671;50.084;8.794;2023-05-07T08:37:04;22.60;99.90
9847;DHT22;68671;50.084;8.794;2023-05-07T08:39:31;22.70;99.90
9847;DHT22;68671;50.084;8.794;2023-05-07T08:42:00;22.80;99.90
9847;DHT22;68671;50.084;8.794;2023-05-07T08:44:33;23.00;99.90
9847;DHT22;68671;50.084;8.794;2023-05-07T08:47:01;23.20;99.90
9847;DHT22;68671;50.084;8.794;2023-05-07T08:49:30;23.40;99.90
9847;DHT22;68671;50.084;8.794;2023-05-07T08:51:57;23.50;99.90
9847;DHT22;68671;50.084;8.794;2023-05-07T08:54:25;23.50;99.90
9847;DHT22;68671;50.084;8.794;2023-05-07T08:56:53;23.60;99.90
9847;DHT22;68671;50.084;8.794;2023-05-07T08:59:20;23.50;99.90
9847;DHT22;68671;50.084;8.794;2023-05-07T09:01:49;23.60;99.90
9847;DHT22;68671;50.084;8.794;2023-05-07T09:04:16;23.60;99.90
9847;DHT22;68671;50.084;8.794;2023-05-07T09:06:45;23.60;99.90
9847;DHT22;68671;50.084;8.794;2023-05-07T09:09:14;23.60;99.90
9847;DHT22;68671;50.084;8.794;2023-05-07T09:11:46;23.50;99.90
9847;DHT22;68671;50.084;8.794;2023-05-07T09:14:13;23.40;99.90
9847;DHT22;68671;50.084;8.794;2023-05-07T09:16:39;23.50;99.90
9847;DHT22;68671;50.084;8.794;2023-05-07T09:19:06;23.40;99.90
9847;DHT22;68671;50.084;8.794;2023-05-07T09:21:33;23.50;99.90
9847;DHT22;68671;50.084;8.794;2023-05-07T09:24:02;23.40;99.90
9847;DHT22;68671;50.084;8.794;2023-05-07T09:26:31;23.40;99.90
9847;DHT22;68671;50.084;8.794;2023-05-07T09:28:59;23.40;99.90
9847;DHT22;68671;50.084;8.794;2023-05-07T09:31:26;23.40;99.90
9847;DHT22;68671;50.084;8.794;2023-05-07T09:33:53;23.40;99.90
9847;DHT22;68671;50.084;8.794;2023-05-07T09:36:21;23.40;99.90
9847;DHT22;68671;50.084;8.794;2023-05-07T09:38:48;23.40;99.90
9847;DHT22;68671;50.084;8.794;2023-05-07T09:41:18;23.50;99.90
9847;DHT22;68671;50.084;8.794;2023-05-07T09:43:46;23.50;99.90
9847;DHT22;68671;50.084;8.794;2023-05-07T09:46:24;23.60;99.90
9847;DHT22;68671;50.084;8.794;2023-05-07T09:48:53;23.60;99.90
9847;DHT22;68671;50.084;8.794;2023-05-07T09:51:43;23.60;99.90
9847;DHT22;68671;50.084;8.794;2023-05-07T09:54:26;23.60;99.90
9847;DHT22;68671;50.084;8.794;2023-05-07T09:56:57;23.60;99.90
9847;DHT22;68671;50.084;8.794;2023-05-07T09:59:25;23.60;99.90
9847;DHT22;68671;50.084;8.794;2023-05-07T10:01:57;23.60;99.90
9847;DHT22;68671;50.084;8.794;2023-05-07T10:04:25;23.50;99.90
9847;DHT22;68671;50.084;8.794;2023-05-07T10:06:52;23.50;99.90
9847;DHT22;68671;50.084;8.794;2023-05-07T10:09:21;23.60;99.90
9847;DHT22;68671;50.084;8.794;2023-05-07T10:11:49;23.60;99.90
9847;DHT22;68671;50.084;8.794;2023-05-07T10:14:17;23.60;99.90
9847;DHT22;68671;50.084;8.794;2023-05-07T10:16:53;23.60;99.90
9847;DHT22;68671;50.084;8.794;2023-05-07T10:19:22;23.60;99.90
9847;DHT22;68671;50.084;8.794;2023-05-07T10:21:54;23.80;99.90
9847;DHT22;68671;50.084;8.794;2023-05-07T10:24:26;23.70;99.90
9847;DHT22;68671;50.084;8.794;2023-05-07T10:26:53;23.60;99.90
9847;DHT22;68671;50.084;8.794;2023-05-07T10:29:32;23.60;99.90
9847;DHT22;68671;50.084;8.794;2023-05-07T10:32:14;23.70;99.90
9847;DHT22;68671;50.084;8.794;2023-05-07T10:34:45;23.70;99.90
9847;DHT22;68671;50.084;8.794;2023-05-07T10:37:14;23.70;99.90
9847;DHT22;68671;50.084;8.794;2023-05-07T10:39:41;23.70;99.90
9847;DHT22;68671;50.084;8.794;2023-05-07T10:42:09;23.70;99.90
9847;DHT22;68671;50.084;8.794;2023-05-07T10:44:38;23.70;99.90
9847;DHT22;68671;50.084;8.794;2023-05-07T10:47:09;23.70;99.90
9847;DHT22;68671;50.084;8.794;2023-05-07T10:49:38;23.80;99.90
9847;DHT22;68671;50.084;8.794;2023-05-07T10:52:24;23.90;99.90
9847;DHT22;68671;50.084;8.794;2023-05-07T10:55:20;24.10;99.90
9847;DHT22;68671;50.084;8.794;2023-05-07T10:57:47;24.20;99.90
9847;DHT22;68671;50.084;8.794;2023-05-07T11:00:43;24.30;99.90
9847;DHT22;68671;50.084;8.794;2023-05-07T11:03:13;24.30;99.90
9847;DHT22;68671;50.084;8.794;2023-05-07T11:05:41;24.30;99.90
9847;DHT22;68671;50.084;8.794;2023-05-07T11:08:08;24.40;99.90
9847;DHT22;68671;50.084;8.794;2023-05-07T11:10:49;24.40;99.90
9847;DHT22;68671;50.084;8.794;2023-05-07T11:13:17;24.30;99.90
9847;DHT22;68671;50.084;8.794;2023-05-07T11:15:47;24.30;99.90
9847;DHT22;68671;50.084;8.794;2023-05-07T11:18:15;24.40;99.90
9847;DHT22;68671;50.084;8.794;2023-05-07T11:20:47;24.40;99.90
9847;DHT22;68671;50.084;8.794;2023-05-07T11:26:47;24.40;99.90
9847;DHT22;68671;50.084;8.794;2023-05-07T11:29:17;24.50;99.90
9847;DHT22;68671;50.084;8.794;2023-05-07T11:31:48;24.50;99.90
9847;DHT22;68671;50.084;8.794;2023-05-07T11:34:21;24.60;99.90
9847;DHT22;68671;50.084;8.794;2023-05-07T11:36:49;24.60;99.90
9847;DHT22;68671;50.084;8.794;2023-05-07T11:39:26;24.60;99.90
9847;DHT22;68671;50.084;8.794;2023-05-07T11:41:54;24.60;99.90
9847;DHT22;68671;50.084;8.794;2023-05-07T11:44:21;24.60;99.90
9847;DHT22;68671;50.084;8.794;2023-05-07T11:46:50;24.50;99.90
9847;DHT22;68671;50.084;8.794;2023-05-07T11:49:17;24.50;99.90
9847;DHT22;68671;50.084;8.794;2023-05-07T11:51:45;24.60;99.90
9847;DHT22;68671;50.084;8.794;2023-05-07T11:54:15;24.50;99.90
9847;DHT22;68671;50.084;8.794;2023-05-07T11:56:44;24.60;99.90
9847;DHT22;68671;50.084;8.794;2023-05-07T11:59:12;24.60;99.90
9847;DHT22;68671;50.084;8.794;2023-05-07T12:01:45;24.60;99.90
9847;DHT22;68671;50.084;8.794;2023-05-07T12:04:16;24.60;99.90
9847;DHT22;68671;50.084;8.794;2023-05-07T12:09:51;24.60;99.90
9847;DHT22;68671;50.084;8.794;2023-05-07T12:10:18;24.50;99.90
9847;DHT22;68671;50.084;8.794;2023-05-07T12:13:15;24.50;99.90
9847;DHT22;68671;50.084;8.794;2023-05-07T12:15:55;24.40;99.90
9847;DHT22;68671;50.084;8.794;2023-05-07T12:18:23;24.50;99.90
9847;DHT22;68671;50.084;8.794;2023-05-07T12:20:51;24.50;99.90
9847;DHT22;68671;50.084;8.794;2023-05-07T12:23:19;24.50;99.90
9847;DHT22;68671;50.084;8.794;2023-05-07T12:25:47;24.40;99.90
9847;DHT22;68671;50.084;8.794;2023-05-07T12:28:32;24.40;99.90
9847;DHT22;68671;50.084;8.794;2023-05-07T12:31:03;24.40;99.90
9847;DHT22;68671;50.084;8.794;2023-05-07T12:33:31;24.30;99.90
9847;DHT22;68671;50.084;8.794;2023-05-07T12:36:04;24.30;99.90
9847;DHT22;68671;50.084;8.794;2023-05-07T12:38:36;24.30;99.90
9847;DHT22;68671;50.084;8.794;2023-05-07T12:41:04;24.30;99.90
9847;DHT22;68671;50.084;8.794;2023-05-07T12:43:32;24.30;99.90
9847;DHT22;68671;50.084;8.794;2023-05-07T12:46:01;24.40;99.90
9847;DHT22;68671;50.084;8.794;2023-05-07T12:48:28;24.50;99.90
9847;DHT22;68671;50.084;8.794;2023-05-07T12:50:56;24.50;99.90
9847;DHT22;68671;50.084;8.794;2023-05-07T12:53:26;24.50;99.90
9847;DHT22;68671;50.084;8.794;2023-05-07T12:55:55;24.40;99.90
9847;DHT22;68671;50.084;8.794;2023-05-07T12:58:25;24.40;99.90
9847;DHT22;68671;50.084;8.794;2023-05-07T13:00:53;24.30;99.90
9847;DHT22;68671;50.084;8.794;2023-05-07T13:03:25;24.30;99.90
9847;DHT22;68671;50.084;8.794;2023-05-07T13:05:54;24.30;99.90
9847;DHT22;68671;50.084;8.794;2023-05-07T13:08:28;24.20;99.90
9847;DHT22;68671;50.084;8.794;2023-05-07T13:10:56;24.20;99.90
9847;DHT22;68671;50.084;8.794;2023-05-07T13:13:23;24.20;99.90
9847;DHT22;68671;50.084;8.794;2023-05-07T13:15:50;24.10;99.90
9847;DHT22;68671;50.084;8.794;2023-05-07T13:18:17;24.20;99.90
9847;DHT22;68671;50.084;8.794;2023-05-07T13:20:44;24.10;99.90
9847;DHT22;68671;50.084;8.794;2023-05-07T13:23:11;24.00;99.90
9847;DHT22;68671;50.084;8.794;2023-05-07T13:25:39;24.00;99.90
9847;DHT22;68671;50.084;8.794;2023-05-07T13:28:06;23.90;99.90
9847;DHT22;68671;50.084;8.794;2023-05-07T13:30:33;23.80;99.90
9847;DHT22;68671;50.084;8.794;2023-05-07T13:33:00;23.70;99.90
9847;DHT22;68671;50.084;8.794;2023-05-07T13:35:27;23.70;99.90
9847;DHT22;68671;50.084;8.794;2023-05-07T13:37:54;23.60;99.90
9847;DHT22;68671;50.084;8.794;2023-05-07T13:40:21;23.50;99.90
9847;DHT22;68671;50.084;8.794;2023-05-07T13:42:50;23.50;99.90
9847;DHT22;68671;50.084;8.794;2023-05-07T13:45:18;23.50;99.90
9847;DHT22;68671;50.084;8.794;2023-05-07T13:47:45;23.50;99.90
9847;DHT22;68671;50.084;8.794;2023-05-07T13:50:12;23.50;99.90
9847;DHT22;68671;50.084;8.794;2023-05-07T13:52:41;23.50;99.90
9847;DHT22;68671;50.084;8.794;2023-05-07T13:55:09;23.50;99.90
9847;DHT22;68671;50.084;8.794;2023-05-07T13:57:36;23.50;99.90
9847;DHT22;68671;50.084;8.794;2023-05-07T14:00:09;23.60;99.90
9847;DHT22;68671;50.084;8.794;2023-05-07T14:02:36;23.50;99.90
9847;DHT22;68671;50.084;8.794;2023-05-07T14:05:04;23.40;99.90
9847;DHT22;68671;50.084;8.794;2023-05-07T14:07:31;23.40;99.90
9847;DHT22;68671;50.084;8.794;2023-05-07T14:09:58;23.30;99.90
9847;DHT22;68671;50.084;8.794;2023-05-07T14:12:25;23.30;99.90
9847;DHT22;68671;50.084;8.794;2023-05-07T14:14:52;23.20;99.90
9847;DHT22;68671;50.084;8.794;2023-05-07T14:17:20;23.20;99.90
9847;DHT22;68671;50.084;8.794;2023-05-07T14:19:48;23.10;99.90
9847;DHT22;68671;50.084;8.794;2023-05-07T14:22:15;23.20;99.90
9847;DHT22;68671;50.084;8.794;2023-05-07T14:24:42;23.10;99.90
9847;DHT22;68671;50.084;8.794;2023-05-07T14:27:09;23.10;99.90
9847;DHT22;68671;50.084;8.794;2023-05-07T14:29:36;23.10;99.90
9847;DHT22;68671;50.084;8.794;2023-05-07T14:32:06;23.10;99.90
9847;DHT22;68671;50.084;8.794;2023-05-07T14:34:34;23.10;99.90
9847;DHT22;68671;50.084;8.794;2023-05-07T14:37:01;23.20;99.90
9847;DHT22;68671;50.084;8.794;2023-05-07T14:39:28;23.20;99.90
9847;DHT22;68671;50.084;8.794;2023-05-07T14:41:57;23.20;99.90
9847;DHT22;68671;50.084;8.794;2023-05-07T14:44:24;23.30;99.90
9847;DHT22;68671;50.084;8.794;2023-05-07T14:46:51;23.30;99.90
9847;DHT22;68671;50.084;8.794;2023-05-07T14:49:18;23.30;99.90
9847;DHT22;68671;50.084;8.794;2023-05-07T14:51:47;23.30;99.90
9847;DHT22;68671;50.084;8.794;2023-05-07T14:54:14;23.30;99.90
9847;DHT22;68671;50.084;8.794;2023-05-07T14:56:42;23.30;99.90
9847;DHT22;68671;50.084;8.794;2023-05-07T14:59:09;23.10;99.90
9847;DHT22;68671;50.084;8.794;2023-05-07T15:01:36;23.00;99.90
9847;DHT22;68671;50.084;8.794;2023-05-07T15:04:04;23.00;99.90
9847;DHT22;68671;50.084;8.794;2023-05-07T15:06:31;23.10;99.90
9847;DHT22;68671;50.084;8.794;2023-05-07T15:09:00;23.10;99.90
9847;DHT22;68671;50.084;8.794;2023-05-07T15:11:28;23.10;99.90
9847;DHT22;68671;50.084;8.794;2023-05-07T15:13:55;23.10;99.90
9847;DHT22;68671;50.084;8.794;2023-05-07T15:16:23;23.10;99.90
9847;DHT22;68671;50.084;8.794;2023-05-07T15:18:49;23.10;99.90
9847;DHT22;68671;50.084;8.794;2023-05-07T15:21:20;23.10;99.90
9847;DHT22;68671;50.084;8.794;2023-05-07T15:24:04;23.10;99.90
9847;DHT22;68671;50.084;8.794;2023-05-07T15:26:31;23.20;99.90
9847;DHT22;68671;50.084;8.794;2023-05-07T15:28:58;23.30;99.90
9847;DHT22;68671;50.084;8.794;2023-05-07T15:31:25;23.30;99.90
9847;DHT22;68671;50.084;8.794;2023-05-07T15:33:52;23.40;99.90
9847;DHT22;68671;50.084;8.794;2023-05-07T15:36:19;23.50;99.90
9847;DHT22;68671;50.084;8.794;2023-05-07T15:38:47;23.50;99.90
9847;DHT22;68671;50.084;8.794;2023-05-07T15:41:15;23.50;99.90
9847;DHT22;68671;50.084;8.794;2023-05-07T15:43:44;23.50;99.90
9847;DHT22;68671;50.084;8.794;2023-05-07T15:46:12;23.60;99.90
9847;DHT22;68671;50.084;8.794;2023-05-07T15:48:43;23.60;99.90
9847;DHT22;68671;50.084;8.794;2023-05-07T15:51:12;23.60;99.90
9847;DHT22;68671;50.084;8.794;2023-05-07T15:53:39;23.60;99.90
9847;DHT22;68671;50.084;8.794;2023-05-07T15:56:06;23.60;99.90